Time;durP1;ratioP1;P1;durP2;ratioP2;P2;SDS_P1;SDS_P2;PMS_P1;PMS_P2;Temp;Humidity;BMP_temperature;BMP_pressure;BME280_temperature;BME280_humidity;BME280_pressure;Samples;Min_cycle;Max_cycle;Signal;HPM_P1;HPM_P2
2023/03/24 00:01:24;;;;;;;5.67;3.83;;;;;;;12.55;100.00;98017.53;5067882;28;20196;-78
2023/03/24 00:03:53;;;;;;;4.73;4.10;;;;;;;12.53;100.00;98017.63;5067263;28;20192;-79
2023/03/24 00:06:22;;;;;;;6.30;4.00;;;;;;;12.48;100.00;97997.78;5064426;28;20643;-78
2023/03/24 00:08:51;;;;;;;7.60;4.53;;;;;;;12.40;100.00;98006.44;5073844;28;20693;-79
2023/03/24 00:11:21;;;;;;;7.53;4.73;;;;;;;12.38;100.00;98013.72;5068731;28;20631;-79
2023/03/24 00:13:50;;;;;;;6.60;4.23;;;;;;;12.46;100.00;98010.38;5072237;28;20250;-78
2023/03/24 00:16:20;;;;;;;5.90;4.40;;;;;;;12.43;100.00;98000.84;5073513;28;20204;-78
2023/03/24 00:18:52;;;;;;;6.23;4.80;;;;;;;12.36;100.00;97991.78;5070937;28;20727;-79
2023/03/24 00:21:23;;;;;;;6.43;4.97;;;;;;;12.41;100.00;98000.16;5068132;28;20204;-79
2023/03/24 00:23:53;;;;;;;9.50;5.30;;;;;;;12.28;100.00;97988.97;5073184;28;20228;-79
2023/03/24 00:26:25;;;;;;;6.97;5.60;;;;;;;12.20;100.00;97981.69;5069763;28;20279;-78
2023/03/24 00:28:55;;;;;;;7.73;5.70;;;;;;;12.14;100.00;97990.19;5065136;28;20193;-78
2023/03/24 00:31:24;;;;;;;7.83;5.83;;;;;;;12.25;100.00;97990.06;5070270;28;20203;-78
2023/03/24 00:33:53;;;;;;;6.83;6.03;;;;;;;12.19;100.00;97985.31;5073038;28;20224;-78
2023/03/24 00:36:24;;;;;;;8.60;6.70;;;;;;;12.17;100.00;97981.97;5064797;28;20204;-78
2023/03/24 00:38:53;;;;;;;11.63;6.80;;;;;;;12.16;100.00;97982.94;5072666;28;20220;-78
2023/03/24 00:41:25;;;;;;;12.40;7.57;;;;;;;12.06;100.00;98002.47;5069291;28;20192;-77
2023/03/24 00:43:57;;;;;;;11.33;7.83;;;;;;;12.01;100.00;98003.72;5065889;28;20201;-78
2023/03/24 00:46:29;;;;;;;13.03;8.83;;;;;;;11.88;100.00;98000.47;5064216;28;20236;-78
2023/03/24 00:49:02;;;;;;;11.90;9.17;;;;;;;12.00;100.00;97996.72;5069780;28;20188;-78
2023/03/24 00:51:32;;;;;;;10.70;8.70;;;;;;;11.86;100.00;97994.44;5070346;28;20207;-79
2023/03/24 00:54:01;;;;;;;11.90;9.03;;;;;;;11.88;100.00;97997.00;5073116;28;20200;-79
2023/03/24 00:56:32;;;;;;;11.23;8.07;;;;;;;11.87;100.00;98001.47;5069498;28;20683;-79
2023/03/24 00:59:02;;;;;;;11.77;8.70;;;;;;;11.86;100.00;97989.13;5071630;28;20231;-79
2023/03/24 01:01:33;;;;;;;10.87;8.90;;;;;;;11.93;100.00;97995.59;5072946;28;20270;-78
2023/03/24 01:04:04;;;;;;;12.63;9.10;;;;;;;11.88;100.00;97989.03;5065784;28;20192;-79
2023/03/24 01:06:35;;;;;;;10.50;8.00;;;;;;;11.87;100.00;97984.66;5069773;28;20200;-79
2023/03/24 01:09:04;;;;;;;11.80;8.33;;;;;;;11.97;100.00;97969.63;5069511;28;20192;-79
2023/03/24 01:11:38;;;;;;;12.87;8.53;;;;;;;11.96;100.00;97981.19;5070126;28;20200;-78
2023/03/24 01:14:09;;;;;;;10.67;8.57;;;;;;;11.93;100.00;97962.91;5067077;28;20658;-79
2023/03/24 01:16:39;;;;;;;8.57;7.67;;;;;;;11.93;100.00;97970.88;5069728;28;20204;-79
2023/03/24 01:19:08;;;;;;;12.30;7.77;;;;;;;11.97;100.00;97970.47;5072579;28;20349;-79
2023/03/24 01:21:37;;;;;;;9.70;8.30;;;;;;;11.91;100.00;97964.88;5018945;28;20192;-80
2023/03/24 01:24:07;;;;;;;12.07;8.10;;;;;;;11.96;100.00;97963.47;5063146;28;20200;-79
2023/03/24 01:26:36;;;;;;;10.47;7.67;;;;;;;11.96;100.00;97955.50;5065361;28;20231;-79
2023/03/24 01:29:04;;;;;;;8.33;7.00;;;;;;;11.93;100.00;97953.13;5065646;28;20211;-79
2023/03/24 01:31:35;;;;;;;12.93;7.80;;;;;;;12.05;100.00;97956.50;5063161;28;20211;-79
2023/03/24 01:34:03;;;;;;;10.47;7.37;;;;;;;12.04;100.00;97955.66;5068557;28;20232;-79
2023/03/24 01:36:32;;;;;;;12.60;8.30;;;;;;;11.94;100.00;97948.66;5069786;28;20188;-79
2023/03/24 01:39:00;;;;;;;8.97;7.37;;;;;;;12.06;100.00;97944.06;5062590;28;20224;-79
2023/03/24 01:41:33;;;;;;;10.20;7.30;;;;;;;12.00;100.00;97932.22;5067660;28;20200;-79
2023/03/24 01:44:22;;;;;;;8.20;6.33;;;;;;;12.09;100.00;97931.38;5071402;28;20200;-79
2023/03/24 01:46:52;;;;;;;11.13;7.50;;;;;;;12.08;100.00;97919.09;5069574;28;20196;-78
2023/03/24 01:49:21;;;;;;;9.20;6.77;;;;;;;12.01;100.00;97924.09;5063933;28;20262;-79
2023/03/24 01:51:57;;;;;;;6.73;6.10;;;;;;;12.02;100.00;97914.31;5065950;28;20200;-79
2023/03/24 01:54:31;;;;;;;9.77;7.03;;;;;;;12.00;100.00;97905.69;5072360;28;20188;-79
2023/03/24 01:57:04;;;;;;;8.60;6.03;;;;;;;11.99;100.00;97893.38;5063047;28;20200;-79
2023/03/24 01:59:38;;;;;;;8.93;5.60;;;;;;;12.01;100.00;97900.22;5069096;28;20391;-79
2023/03/24 02:02:12;;;;;;;8.40;5.67;;;;;;;12.03;100.00;97892.13;5072303;28;20196;-79
2023/03/24 02:04:43;;;;;;;8.10;5.90;;;;;;;11.89;100.00;97889.88;5063251;28;20242;-79
2023/03/24 02:07:17;;;;;;;7.33;5.80;;;;;;;11.86;100.00;97883.00;5064017;28;20250;-78
2023/03/24 02:09:47;;;;;;;6.93;5.50;;;;;;;11.86;100.00;97887.47;5068313;28;20671;-78
2023/03/24 02:12:15;;;;;;;6.20;5.50;;;;;;;11.88;100.00;97882.91;5069166;28;20200;-79
2023/03/24 02:14:44;;;;;;;9.60;5.83;;;;;;;11.90;100.00;97880.94;5069180;28;20193;-79
2023/03/24 02:17:39;;;;;;;7.83;5.60;;;;;;;12.00;100.00;97887.94;5067657;28;20656;-79
2023/03/24 02:20:30;;;;;;;6.97;4.97;;;;;;;12.09;100.00;97869.50;5068653;28;20706;-79
2023/03/24 02:23:44;;;;;;;9.37;5.23;;;;;;;12.08;100.00;97871.31;5069992;28;20208;-78
2023/03/24 02:26:46;;;;;;;7.10;5.37;;;;;;;12.04;100.00;97862.78;5070346;28;20196;-79
2023/03/24 02:30:03;;;;;;;7.77;5.30;;;;;;;12.00;100.00;97864.06;5012396;28;20190;-79
2023/03/24 02:33:01;;;;;;;7.13;5.53;;;;;;;12.04;100.00;97849.50;5039744;28;20200;-79
2023/03/24 02:36:02;;;;;;;6.20;5.20;;;;;;;12.07;100.00;97855.53;5067620;28;20716;-79
2023/03/24 02:39:00;;;;;;;8.03;5.53;;;;;;;12.10;100.00;97844.63;5072257;28;20231;-79
2023/03/24 02:41:50;;;;;;;6.57;5.00;;;;;;;12.07;100.00;97845.75;5071441;28;20203;-79
2023/03/24 02:44:27;;;;;;;7.30;4.77;;;;;;;11.98;100.00;97838.63;5074264;28;20644;-79
2023/03/24 02:47:05;;;;;;;7.23;5.53;;;;;;;12.14;100.00;97838.91;5071421;28;20238;-79
2023/03/24 02:49:42;;;;;;;8.07;5.20;;;;;;;12.07;100.00;97835.16;5072001;28;20188;-79
2023/03/24 02:52:17;;;;;;;6.43;4.90;;;;;;;12.10;100.00;97829.56;5072061;28;20253;-79
2023/03/24 02:54:49;;;;;;;6.90;5.27;;;;;;;12.11;100.00;97833.88;5075353;28;20192;-80
2023/03/24 02:57:24;;;;;;;6.53;4.90;;;;;;;12.17;100.00;97830.69;5074872;28;20434;-79
2023/03/24 02:59:57;;;;;;;8.07;5.30;;;;;;;12.07;100.00;97813.09;5068032;28;20230;-79
2023/03/24 03:02:30;;;;;;;6.17;5.07;;;;;;;12.12;100.00;97824.94;5069312;28;20191;-80
2023/03/24 03:05:05;;;;;;;6.00;5.00;;;;;;;12.12;100.00;97819.63;5070081;28;20189;-79
2023/03/24 03:07:36;;;;;;;8.43;5.23;;;;;;;12.17;100.00;97800.63;5076025;28;20192;-80
2023/03/24 03:10:12;;;;;;;6.93;4.83;;;;;;;12.07;100.00;97795.34;5077097;28;20196;-80
2023/03/24 03:12:46;;;;;;;5.90;5.10;;;;;;;12.04;100.00;97801.75;5066930;28;20199;-80
2023/03/24 03:15:23;;;;;;;6.47;4.73;;;;;;;12.04;100.00;97806.22;5069667;28;20643;-79
2023/03/24 03:17:57;;;;;;;5.97;5.20;;;;;;;12.07;100.00;97781.25;5065854;28;20226;-79
2023/03/24 03:20:33;;;;;;;6.10;4.90;;;;;;;12.04;100.00;97774.38;5066220;28;20705;-79
2023/03/24 03:23:05;;;;;;;7.80;4.90;;;;;;;12.02;100.00;97779.00;5070210;28;20722;-79
2023/03/24 03:25:41;;;;;;;5.97;5.30;;;;;;;12.07;100.00;97768.81;5074365;28;20663;-79
2023/03/24 03:28:13;;;;;;;6.23;5.20;;;;;;;12.08;100.00;97770.47;5068666;28;20202;-79
2023/03/24 03:30:45;;;;;;;7.00;5.30;;;;;;;12.07;100.00;97771.47;5074381;28;20222;-79
2023/03/24 03:33:23;;;;;;;7.30;5.23;;;;;;;12.08;100.00;97765.16;5066046;28;20311;-79
2023/03/24 03:35:56;;;;;;;6.20;5.13;;;;;;;12.04;100.00;97767.25;5069247;28;20242;-79
2023/03/24 03:38:34;;;;;;;10.07;5.37;;;;;;;12.04;100.00;97769.91;5074070;28;20192;-79
2023/03/24 03:41:05;;;;;;;7.60;5.23;;;;;;;12.11;100.00;97774.66;5074024;28;20756;-80
2023/03/24 03:43:36;;;;;;;8.20;5.20;;;;;;;12.01;100.00;97779.97;5076853;28;20197;-80
2023/03/24 03:46:06;;;;;;;7.07;5.47;;;;;;;12.02;100.00;97782.47;5019598;28;20647;-80
2023/03/24 03:48:35;;;;;;;5.80;4.80;;;;;;;12.00;100.00;97775.66;5071014;28;20314;-80
2023/03/24 03:51:03;;;;;;;6.80;4.83;;;;;;;12.02;100.00;97777.16;5069234;28;20232;-80
2023/03/24 03:53:42;;;;;;;5.90;4.97;;;;;;;12.09;100.00;97761.53;5071450;28;20250;-80
2023/03/24 03:56:10;;;;;;;5.70;5.10;;;;;;;12.05;100.00;97765.44;5065033;28;20188;-81
2023/03/24 03:58:41;;;;;;;6.90;5.17;;;;;;;11.90;100.00;97756.25;5065621;28;20196;-80
2023/03/24 04:01:14;;;;;;;6.77;5.03;;;;;;;11.97;100.00;97749.41;5063544;28;20378;-81
2023/03/24 04:04:06;;;;;;;5.93;5.10;;;;;;;12.00;100.00;97755.25;5068547;28;20281;-80
2023/03/24 04:06:41;;;;;;;8.60;5.30;;;;;;;12.02;100.00;97745.34;5071237;28;20241;-80
2023/03/24 04:09:28;;;;;;;7.73;4.90;;;;;;;12.08;100.00;97748.41;5069536;28;20207;-80
2023/03/24 04:12:17;;;;;;;7.10;5.00;;;;;;;11.98;100.00;97748.44;5068972;28;20204;-81
2023/03/24 04:15:03;;;;;;;6.90;4.93;;;;;;;11.98;100.00;97751.91;5034250;28;20266;-79
2023/03/24 04:17:50;;;;;;;6.27;5.20;;;;;;;11.98;100.00;97740.47;5069452;28;20192;-80
2023/03/24 04:20:23;;;;;;;6.60;5.40;;;;;;;11.98;100.00;97743.94;5069540;28;20306;-80
2023/03/24 04:23:08;;;;;;;6.87;5.87;;;;;;;11.98;100.00;97737.81;5068896;28;20199;-80
2023/03/24 04:25:48;;;;;;;9.10;6.07;;;;;;;12.01;100.00;97746.31;5068248;28;20620;-80
2023/03/24 04:28:26;;;;;;;7.10;5.57;;;;;;;12.01;100.00;97740.16;5067699;28;20204;-79
2023/03/24 04:31:06;;;;;;;9.03;6.20;;;;;;;12.00;100.00;97731.38;5070726;28;20196;-80
2023/03/24 04:33:41;;;;;;;6.90;5.70;;;;;;;12.10;100.00;97741.13;5069559;28;20224;-80
2023/03/24 04:36:16;;;;;;;7.40;5.70;;;;;;;12.08;100.00;97738.63;5064521;28;20269;-81
2023/03/24 04:38:49;;;;;;;8.50;6.30;;;;;;;12.04;100.00;97743.38;5068725;28;20196;-80
2023/03/24 04:41:20;;;;;;;8.80;6.40;;;;;;;12.09;100.00;97742.94;5068184;28;20216;-80
2023/03/24 04:43:49;;;;;;;10.43;6.27;;;;;;;12.04;100.00;97732.75;5066431;28;20208;-80
2023/03/24 04:46:20;;;;;;;7.30;6.23;;;;;;;12.04;100.00;97740.72;5064873;28;20254;-80
2023/03/24 04:48:49;;;;;;;9.23;6.60;;;;;;;11.96;100.00;97758.31;5060637;28;20191;-81
2023/03/24 04:51:19;;;;;;;6.77;6.07;;;;;;;12.06;100.00;97764.44;5067184;28;20200;-80
2023/03/24 04:53:48;;;;;;;9.90;7.00;;;;;;;12.04;100.00;97766.41;5037631;28;20238;-81
2023/03/24 04:56:31;;;;;;;8.03;6.70;;;;;;;12.08;100.00;97764.34;5061139;28;20200;-80
2023/03/24 04:58:59;;;;;;;7.57;6.77;;;;;;;11.88;100.00;97758.22;5065073;28;20207;-80
2023/03/24 05:01:29;;;;;;;8.43;6.50;;;;;;;11.97;100.00;97776.78;5063428;28;20293;-80
2023/03/24 05:03:58;;;;;;;10.70;6.70;;;;;;;11.99;100.00;97766.84;5066352;28;20192;-81
2023/03/24 05:06:27;;;;;;;9.63;6.53;;;;;;;12.04;100.00;97769.06;5029395;28;20206;-80
2023/03/24 05:08:57;;;;;;;7.87;6.13;;;;;;;11.98;100.00;97767.84;5028159;28;20660;-80
2023/03/24 05:11:26;;;;;;;9.67;7.77;;;;;;;12.07;100.00;97767.97;5027881;28;20324;-80
2023/03/24 05:13:54;;;;;;;9.83;7.27;;;;;;;12.11;100.00;97767.53;5025438;28;20201;-81
2023/03/24 05:16:22;;;;;;;12.90;8.13;;;;;;;12.09;100.00;97779.28;5022930;28;20201;-80
2023/03/24 05:18:52;;;;;;;9.33;7.20;;;;;;;12.10;100.00;97773.81;5026668;28;20205;-81
2023/03/24 05:21:21;;;;;;;8.43;7.53;;;;;;;12.06;100.00;97780.38;5025390;28;20279;-80
2023/03/24 05:23:50;;;;;;;9.73;7.17;;;;;;;11.97;100.00;97779.44;5036965;28;20198;-81
2023/03/24 05:26:18;;;;;;;10.13;7.30;;;;;;;11.94;100.00;97776.19;5064924;28;20188;-80
2023/03/24 05:28:46;;;;;;;9.23;7.00;;;;;;;11.99;100.00;97777.47;5056917;28;20261;-81
2023/03/24 05:31:16;;;;;;;9.97;7.47;;;;;;;11.90;100.00;97788.91;5064282;28;20200;-81
2023/03/24 05:33:45;;;;;;;8.67;7.77;;;;;;;11.94;100.00;97792.97;5063873;28;20265;-80
2023/03/24 05:36:15;;;;;;;8.23;7.43;;;;;;;11.92;100.00;97807.34;5066837;28;20201;-80
2023/03/24 05:38:43;;;;;;;11.80;7.83;;;;;;;11.97;100.00;97789.22;5068527;28;20224;-80
2023/03/24 05:41:11;;;;;;;10.10;7.87;;;;;;;11.89;100.00;97787.25;5067588;28;20572;-80
2023/03/24 05:43:39;;;;;;;10.70;8.03;;;;;;;11.90;100.00;97794.22;5072773;28;20699;-79
2023/03/24 05:46:08;;;;;;;8.90;8.00;;;;;;;11.90;100.00;97796.03;5074277;28;20192;-80
2023/03/24 05:48:38;;;;;;;10.00;7.57;;;;;;;11.88;100.00;97804.16;5072169;28;20196;-80
2023/03/24 05:51:07;;;;;;;12.53;7.67;;;;;;;11.79;100.00;97797.00;5070975;28;20251;-80
2023/03/24 05:53:37;;;;;;;9.43;8.03;;;;;;;11.84;100.00;97784.16;5022533;28;20708;-80
2023/03/24 05:56:10;;;;;;;12.30;7.83;;;;;;;11.94;100.00;97773.53;5073157;28;20210;-80
2023/03/24 05:58:39;;;;;;;9.60;7.37;;;;;;;12.00;100.00;97783.59;5070592;28;20200;-80
2023/03/24 06:01:09;;;;;;;11.53;8.10;;;;;;;12.11;100.00;97783.44;5067971;28;20262;-80
2023/03/24 06:03:39;;;;;;;12.07;8.03;;;;;;;11.97;100.00;97792.69;5068145;28;20201;-80
2023/03/24 06:06:13;;;;;;;10.83;7.80;;;;;;;12.00;100.00;97788.91;5076150;28;20242;-80
2023/03/24 06:08:44;;;;;;;11.10;8.07;;;;;;;12.08;100.00;97797.00;5050803;28;20189;-79
2023/03/24 06:11:14;;;;;;;11.47;8.03;;;;;;;12.00;100.00;97802.19;5052316;28;20199;-79
2023/03/24 06:13:42;;;;;;;9.10;7.97;;;;;;;11.98;100.00;97809.44;5046438;28;20265;-80
2023/03/24 06:16:11;;;;;;;11.70;8.00;;;;;;;11.98;100.00;97807.63;5044093;28;20220;-79
2023/03/24 06:18:41;;;;;;;9.67;7.43;;;;;;;12.01;100.00;97815.31;5053728;28;20201;-79
2023/03/24 06:21:10;;;;;;;8.50;7.57;;;;;;;12.08;100.00;97804.13;5048039;28;20208;-81
2023/03/24 06:23:38;;;;;;;9.63;7.77;;;;;;;12.13;100.00;97802.72;5050857;28;20254;-80
2023/03/24 06:26:11;;;;;;;9.00;7.63;;;;;;;12.12;100.00;97806.34;5043791;28;20261;-80
2023/03/24 06:28:42;;;;;;;9.47;7.57;;;;;;;12.26;100.00;97807.75;5044911;28;20292;-80
2023/03/24 06:31:13;;;;;;;10.17;7.77;;;;;;;12.25;100.00;97808.72;5052137;28;20201;-80
2023/03/24 06:33:42;;;;;;;10.97;7.90;;;;;;;12.29;100.00;97808.28;5061538;28;20220;-80
2023/03/24 06:36:12;;;;;;;8.70;7.70;;;;;;;12.33;100.00;97811.50;5072648;28;20208;-80
2023/03/24 06:38:41;;;;;;;8.77;7.07;;;;;;;12.32;100.00;97813.31;5069705;28;20200;-80
2023/03/24 06:41:12;;;;;;;8.77;6.83;;;;;;;12.36;100.00;97826.31;5075499;28;20209;-80
2023/03/24 06:43:40;;;;;;;9.50;8.00;;;;;;;12.26;100.00;97818.38;5069476;28;20188;-80
2023/03/24 06:46:09;;;;;;;8.60;7.17;;;;;;;12.42;100.00;97818.59;5066337;28;20196;-80
2023/03/24 06:48:38;;;;;;;7.30;6.50;;;;;;;12.43;100.00;97827.41;5070122;28;20196;-80
2023/03/24 06:51:07;;;;;;;9.13;7.20;;;;;;;12.46;100.00;97821.84;5068345;28;20261;-79
2023/03/24 06:53:36;;;;;;;9.10;6.97;;;;;;;12.39;100.00;97834.00;5069628;28;20204;-79
2023/03/24 06:56:05;;;;;;;8.60;6.77;;;;;;;12.52;100.00;97837.19;5072655;28;20204;-80
2023/03/24 06:58:42;;;;;;;9.83;7.17;;;;;;;12.59;100.00;97833.81;5066554;28;20257;-80
2023/03/24 07:01:11;;;;;;;7.23;6.23;;;;;;;12.65;100.00;97835.06;5032312;28;20241;-80
2023/03/24 07:03:40;;;;;;;8.23;6.67;;;;;;;12.79;100.00;97839.91;5072176;28;20203;-80
2023/03/24 07:06:10;;;;;;;8.93;6.80;;;;;;;12.76;100.00;97842.88;5071921;28;20291;-79
2023/03/24 07:08:39;;;;;;;7.80;6.63;;;;;;;12.87;100.00;97847.16;5069970;28;20254;-80
2023/03/24 07:11:08;;;;;;;9.27;6.13;;;;;;;12.89;100.00;97846.03;5064075;28;20196;-80
2023/03/24 07:13:40;;;;;;;8.23;6.37;;;;;;;12.94;100.00;97832.31;5073732;28;20210;-80
2023/03/24 07:16:10;;;;;;;10.23;6.97;;;;;;;12.96;100.00;97837.47;5070516;28;20254;-80
2023/03/24 07:18:39;;;;;;;7.33;5.93;;;;;;;12.96;100.00;97827.69;5070464;28;20230;-80
2023/03/24 07:21:08;;;;;;;8.33;6.27;;;;;;;13.02;100.00;97832.41;5070061;28;20200;-80
2023/03/24 07:23:38;;;;;;;9.50;6.70;;;;;;;13.09;100.00;97830.84;5074421;28;20250;-80
2023/03/24 07:26:07;;;;;;;8.40;6.30;;;;;;;13.10;100.00;97853.78;5069304;28;20643;-80
2023/03/24 07:28:35;;;;;;;6.93;6.10;;;;;;;13.01;100.00;97840.53;5068107;28;20246;-80
2023/03/24 07:31:09;;;;;;;8.53;6.30;;;;;;;13.14;100.00;97841.06;5069631;28;20196;-80
2023/03/24 07:33:38;;;;;;;8.90;6.57;;;;;;;13.18;100.00;97837.09;5069220;28;20706;-80
2023/03/24 07:36:07;;;;;;;7.40;5.87;;;;;;;13.04;100.00;97848.22;5070888;28;20671;-80
2023/03/24 07:38:36;;;;;;;6.37;5.63;;;;;;;13.20;100.00;97843.13;5074139;28;20224;-80
2023/03/24 07:41:04;;;;;;;8.17;5.47;;;;;;;13.24;100.00;97846.34;5071461;28;20204;-80
2023/03/24 07:43:32;;;;;;;6.20;5.10;;;;;;;13.26;100.00;97847.03;5019510;28;20620;-80
2023/03/24 07:46:01;;;;;;;6.23;4.97;;;;;;;13.31;100.00;97850.91;5071458;28;20249;-79
2023/03/24 07:48:30;;;;;;;5.80;5.20;;;;;;;13.40;100.00;97849.19;5070330;28;20352;-80
2023/03/24 07:50:58;;;;;;;6.97;5.23;;;;;;;13.47;100.00;97852.94;5068400;28;20323;-80
2023/03/24 07:53:27;;;;;;;6.33;5.17;;;;;;;13.62;100.00;97861.28;5070481;28;20295;-80
2023/03/24 07:55:55;;;;;;;6.33;4.60;;;;;;;13.60;100.00;97848.09;5064509;28;20243;-80
2023/03/24 07:58:23;;;;;;;5.40;4.40;;;;;;;13.67;100.00;97851.84;5069694;28;20200;-80
2023/03/24 08:00:52;;;;;;;5.50;4.03;;;;;;;13.63;100.00;97860.28;5064839;28;20203;-80
2023/03/24 08:03:26;;;;;;;6.93;4.40;;;;;;;13.76;100.00;97868.72;5067322;28;20216;-80
2023/03/24 08:05:56;;;;;;;4.53;4.00;;;;;;;13.78;100.00;97876.56;5073483;28;20667;-80
2023/03/24 08:08:25;;;;;;;6.00;4.53;;;;;;;13.89;100.00;97871.84;5073432;28;20191;-80
2023/03/24 08:10:53;;;;;;;5.03;4.13;;;;;;;13.90;100.00;97857.59;5070860;28;20192;-80
2023/03/24 08:13:22;;;;;;;4.73;3.57;;;;;;;13.91;100.00;97858.44;5069743;28;20193;-80
2023/03/24 08:15:50;;;;;;;4.83;3.70;;;;;;;13.98;100.00;97854.97;5031898;28;20258;-80
2023/03/24 08:18:19;;;;;;;5.00;4.23;;;;;;;14.07;100.00;97836.44;5071775;28;20239;-80
2023/03/24 08:20:50;;;;;;;5.67;4.40;;;;;;;13.98;100.00;97841.66;5069483;28;20211;-79
2023/03/24 08:23:20;;;;;;;5.83;3.00;;;;;;;14.08;100.00;97822.97;5070459;28;20246;-79
2023/03/24 08:25:49;;;;;;;4.10;3.00;;;;;;;14.10;100.00;97807.69;5065728;28;20662;-80
2023/03/24 08:28:17;;;;;;;4.50;2.90;;;;;;;14.08;100.00;97804.31;5067804;28;20196;-80
2023/03/24 08:30:46;;;;;;;2.30;1.90;;;;;;;13.94;100.00;97810.19;5066676;28;20195;-79
2023/03/24 08:33:16;;;;;;;2.23;1.90;;;;;;;14.04;100.00;97874.84;5068680;28;20228;-79
2023/03/24 08:35:45;;;;;;;1.27;0.70;;;;;;;13.36;100.00;97867.28;5073153;28;20196;-80
2023/03/24 08:38:15;;;;;;;2.00;0.83;;;;;;;13.13;100.00;97873.94;5067999;28;20193;-79
2023/03/24 08:40:47;;;;;;;3.20;1.03;;;;;;;12.90;100.00;97865.47;5069068;28;20821;-80
2023/03/24 08:43:16;;;;;;;1.20;0.70;;;;;;;12.66;100.00;97883.72;5068881;28;20266;-79
2023/03/24 08:45:45;;;;;;;2.20;0.90;;;;;;;12.70;100.00;97875.31;5065639;28;20246;-80
2023/03/24 08:48:13;;;;;;;3.43;1.00;;;;;;;12.59;100.00;97857.72;5066280;28;20200;-79
2023/03/24 08:50:43;;;;;;;1.93;0.80;;;;;;;12.37;100.00;97860.69;5073103;28;20200;-79
2023/03/24 08:53:15;;;;;;;3.30;0.90;;;;;;;12.22;100.00;97865.59;5073173;28;20258;-78
2023/03/24 08:55:44;;;;;;;3.07;0.90;;;;;;;11.95;100.00;97876.88;5070063;28;20184;-80
2023/03/24 08:58:15;;;;;;;3.07;1.20;;;;;;;11.67;100.00;97893.56;5066368;28;20211;-79
2023/03/24 09:00:45;;;;;;;1.93;0.90;;;;;;;11.57;100.00;97901.50;5069230;28;20185;-80
2023/03/24 09:03:16;;;;;;;4.20;1.30;;;;;;;11.38;100.00;97910.22;5072794;28;20216;-80
2023/03/24 09:05:49;;;;;;;2.73;0.93;;;;;;;11.21;100.00;97912.69;5072861;28;20183;-81
2023/03/24 09:08:19;;;;;;;3.57;1.30;;;;;;;11.16;100.00;97910.41;5072977;28;20253;-80
2023/03/24 09:10:48;;;;;;;2.47;1.20;;;;;;;11.07;100.00;97924.44;5069202;28;20674;-81
2023/03/24 09:13:20;;;;;;;3.60;1.27;;;;;;;10.97;100.00;97928.88;5065896;28;20271;-81
2023/03/24 09:15:49;;;;;;;6.00;1.40;;;;;;;10.91;100.00;97926.75;5066117;28;20203;-81
2023/03/24 09:18:18;;;;;;;3.00;1.27;;;;;;;10.71;100.00;97939.00;5067916;28;20275;-81
2023/03/24 09:20:47;;;;;;;4.07;1.50;;;;;;;10.59;100.00;97932.94;5069927;28;20253;-80
2023/03/24 09:23:16;;;;;;;3.47;1.43;;;;;;;10.65;100.00;97942.19;5072387;28;20220;-80
2023/03/24 09:25:44;;;;;;;5.30;1.37;;;;;;;10.66;100.00;97949.16;5072643;28;20207;-81
2023/03/24 09:28:13;;;;;;;2.47;1.17;;;;;;;10.64;100.00;97941.34;5071474;28;20254;-80
2023/03/24 09:30:44;;;;;;;4.57;1.60;;;;;;;10.68;100.00;97939.28;5005595;28;20202;-80
2023/03/24 09:33:12;;;;;;;4.93;1.50;;;;;;;10.54;100.00;97927.22;5008298;28;20510;-81
2023/03/24 09:35:41;;;;;;;5.30;1.57;;;;;;;10.61;100.00;97933.66;4996423;28;20199;-80
2023/03/24 09:38:11;;;;;;;6.63;1.70;;;;;;;10.67;100.00;97919.06;5003323;28;20202;-80
2023/03/24 09:40:40;;;;;;;4.83;1.50;;;;;;;10.76;100.00;97918.28;5009401;28;20281;-80
2023/03/24 09:43:16;;;;;;;5.40;1.50;;;;;;;10.74;100.00;97920.22;4966790;28;20212;-80
2023/03/24 09:45:51;;;;;;;6.47;1.80;;;;;;;10.52;100.00;97931.78;4967512;28;20204;-79
2023/03/24 09:48:29;;;;;;;4.73;1.50;;;;;;;10.52;100.00;97939.75;4984499;28;20190;-80
2023/03/24 09:51:02;;;;;;;4.10;1.67;;;;;;;10.60;100.00;97927.50;5008190;28;20681;-80
2023/03/24 09:53:37;;;;;;;3.43;1.30;;;;;;;10.62;100.00;97932.72;5008061;28;20637;-80
2023/03/24 09:56:13;;;;;;;5.13;1.60;;;;;;;10.39;100.00;97939.06;5007978;28;20228;-80
2023/03/24 09:58:44;;;;;;;5.00;1.57;;;;;;;10.50;100.00;97947.78;5006519;28;20205;-80
2023/03/24 10:01:16;;;;;;;5.50;1.73;;;;;;;10.50;100.00;97955.72;5023687;28;20274;-79
2023/03/24 10:03:45;;;;;;;5.37;1.80;;;;;;;10.63;100.00;97960.84;5050205;28;20225;-80
2023/03/24 10:06:24;;;;;;;4.97;2.03;;;;;;;10.44;100.00;97953.59;5048936;28;20196;-79
2023/03/24 10:09:05;;;;;;;6.30;1.60;;;;;;;10.52;100.00;97961.75;5046914;28;20201;-79
2023/03/24 10:11:39;;;;;;;7.87;1.60;;;;;;;10.46;100.00;97961.41;5054079;28;20275;-79
2023/03/24 10:14:22;;;;;;;4.20;1.87;;;;;;;10.46;100.00;97966.72;5045353;28;20685;-79
2023/03/24 10:17:00;;;;;;;6.67;1.77;;;;;;;10.58;100.00;97963.03;5049247;28;20267;-80
2023/03/24 10:19:40;;;;;;;5.70;1.60;;;;;;;10.43;100.00;97962.50;5048949;28;20200;-79
2023/03/24 10:22:17;;;;;;;9.93;2.30;;;;;;;10.23;100.00;97968.56;5049094;28;20252;-80
2023/03/24 10:24:50;;;;;;;3.70;1.67;;;;;;;10.23;100.00;97968.56;5050033;28;20220;-80
2023/03/24 10:27:26;;;;;;;4.83;1.90;;;;;;;10.25;100.00;97966.66;5044797;28;20767;-80
2023/03/24 10:30:01;;;;;;;4.67;2.07;;;;;;;10.24;100.00;97983.50;5047266;28;20258;-81
2023/03/24 10:32:36;;;;;;;6.57;1.80;;;;;;;10.17;100.00;97991.06;5050142;28;20238;-80
2023/03/24 10:35:09;;;;;;;7.70;2.40;;;;;;;10.18;100.00;97991.91;5049946;28;20692;-81
2023/03/24 10:37:37;;;;;;;5.57;2.30;;;;;;;10.10;100.00;97996.97;5055901;28;20191;-80
2023/03/24 10:40:16;;;;;;;5.93;2.33;;;;;;;10.18;100.00;97987.44;5051648;28;20204;-80
2023/03/24 10:42:47;;;;;;;5.50;2.13;;;;;;;10.33;100.00;97982.75;5054481;28;20196;-80
2023/03/24 10:45:24;;;;;;;7.17;2.07;;;;;;;10.22;100.00;98001.28;5055549;28;20203;-80
2023/03/24 10:47:57;;;;;;;6.63;1.93;;;;;;;10.17;100.00;98009.59;5050504;28;20196;-80
2023/03/24 10:50:27;;;;;;;5.47;1.80;;;;;;;10.51;100.00;98020.94;5055765;28;20196;-80
2023/03/24 10:52:58;;;;;;;7.63;2.17;;;;;;;10.49;100.00;98028.16;5055248;28;20193;-80
2023/03/24 10:55:31;;;;;;;5.57;2.30;;;;;;;10.59;100.00;98015.00;5055344;28;20189;-81
2023/03/24 10:58:00;;;;;;;9.10;2.27;;;;;;;10.84;100.00;98008.53;5047073;28;20651;-81
2023/03/24 11:00:31;;;;;;;8.93;3.30;;;;;;;10.85;100.00;98002.28;5054738;28;20209;-81
2023/03/24 11:03:04;;;;;;;6.60;2.00;;;;;;;11.01;100.00;98007.13;5055751;28;20229;-80
2023/03/24 11:05:35;;;;;;;6.47;2.00;;;;;;;11.01;100.00;98005.31;5047403;28;20238;-81
2023/03/24 11:08:27;;;;;;;9.83;2.60;;;;;;;10.99;100.00;98003.75;5055219;28;20193;-81
2023/03/24 11:10:55;;;;;;;8.37;2.23;;;;;;;10.99;100.00;98003.75;5051849;28;20239;-80
2023/03/24 11:13:29;;;;;;;7.97;1.93;;;;;;;11.14;100.00;98005.13;5049631;28;20193;-80
2023/03/24 11:16:07;;;;;;;9.57;2.40;;;;;;;10.93;100.00;98010.41;5049426;28;20197;-80
2023/03/24 11:18:54;;;;;;;6.63;2.07;;;;;;;10.92;100.00;98016.69;5051048;28;20196;-80
2023/03/24 11:21:23;;;;;;;9.97;2.00;;;;;;;11.08;100.00;98017.06;5045425;28;20232;-80
2023/03/24 11:23:52;;;;;;;6.10;1.83;;;;;;;11.15;100.00;98017.38;5047012;28;20220;-80
2023/03/24 11:26:22;;;;;;;6.03;2.20;;;;;;;11.36;100.00;98020.84;5054426;28;20193;-80
2023/03/24 11:28:53;;;;;;;7.33;1.90;;;;;;;11.53;100.00;98014.13;5052886;28;20632;-80
2023/03/24 11:31:24;;;;;;;4.77;2.43;;;;;;;11.36;100.00;98042.06;5056734;28;20735;-80
2023/03/24 11:34:01;;;;;;;7.43;2.00;;;;;;;11.31;100.00;98054.88;5053770;28;20228;-80
2023/03/24 11:36:47;;;;;;;7.20;2.23;;;;;;;11.47;100.00;98047.28;5054472;28;20231;-80
2023/03/24 11:39:24;;;;;;;8.13;1.73;;;;;;;11.57;100.00;98044.69;5048109;28;20649;-80
2023/03/24 11:42:17;;;;;;;7.80;1.90;;;;;;;11.59;100.00;98026.84;5051785;28;20192;-81
2023/03/24 11:44:49;;;;;;;7.83;2.20;;;;;;;11.73;100.00;98037.09;5049946;28;20221;-80
2023/03/24 11:47:23;;;;;;;8.30;1.80;;;;;;;11.82;100.00;98034.66;5053965;28;20235;-81
2023/03/24 11:50:01;;;;;;;7.97;2.00;;;;;;;11.86;100.00;98036.06;5046094;28;20197;-80